sensor_id;sensor_type;location;lat;lon;timestamp;P1;durP1;ratioP1;P2;durP2;ratioP2
20861;SDS011;10591;52.532;13.348;2023-04-21T00:01:22;12.65;;;8.05;;
20861;SDS011;10591;52.532;13.348;2023-04-21T00:03:54;13.32;;;7.75;;
20861;SDS011;10591;52.532;13.348;2023-04-21T00:06:25;12.25;;;8.10;;
20861;SDS011;10591;52.532;13.348;2023-04-21T00:08:56;14.20;;;7.62;;
20861;SDS011;10591;52.532;13.348;2023-04-21T00:11:27;12.18;;;7.47;;
20861;SDS011;10591;52.532;13.348;2023-04-21T00:13:57;12.95;;;7.53;;
20861;SDS011;10591;52.532;13.348;2023-04-21T00:16:28;13.48;;;7.92;;
20861;SDS011;10591;52.532;13.348;2023-04-21T00:18:58;12.70;;;8.08;;
20861;SDS011;10591;52.532;13.348;2023-04-21T00:21:36;13.13;;;7.47;;
20861;SDS011;10591;52.532;13.348;2023-04-21T00:24:03;12.35;;;7.62;;
20861;SDS011;10591;52.532;13.348;2023-04-21T00:26:37;12.18;;;7.83;;
20861;SDS011;10591;52.532;13.348;2023-04-21T00:29:08;9.98;;;7.45;;
20861;SDS011;10591;52.532;13.348;2023-04-21T00:31:38;11.15;;;7.90;;
20861;SDS011;10591;52.532;13.348;2023-04-21T00:34:09;12.50;;;7.78;;
20861;SDS011;10591;52.532;13.348;2023-04-21T00:36:39;12.43;;;8.33;;
20861;SDS011;10591;52.532;13.348;2023-04-21T00:39:10;10.10;;;7.65;;
20861;SDS011;10591;52.532;13.348;2023-04-21T00:41:42;12.23;;;8.15;;
20861;SDS011;10591;52.532;13.348;2023-04-21T00:44:12;13.78;;;8.38;;
20861;SDS011;10591;52.532;13.348;2023-04-21T00:46:43;15.32;;;8.70;;
20861;SDS011;10591;52.532;13.348;2023-04-21T00:49:13;11.28;;;8.10;;
20861;SDS011;10591;52.532;13.348;2023-04-21T00:51:44;15.72;;;8.53;;
20861;SDS011;10591;52.532;13.348;2023-04-21T00:54:15;13.43;;;8.65;;
20861;SDS011;10591;52.532;13.348;2023-04-21T00:56:47;13.95;;;8.60;;
20861;SDS011;10591;52.532;13.348;2023-04-21T00:59:17;15.28;;;8.80;;
20861;SDS011;10591;52.532;13.348;2023-04-21T01:01:49;14.35;;;8.78;;
20861;SDS011;10591;52.532;13.348;2023-04-21T01:04:20;13.05;;;8.40;;
20861;SDS011;10591;52.532;13.348;2023-04-21T01:06:51;11.18;;;9.10;;
20861;SDS011;10591;52.532;13.348;2023-04-21T01:09:22;12.50;;;8.70;;
20861;SDS011;10591;52.532;13.348;2023-04-21T01:12:02;13.43;;;8.78;;
20861;SDS011;10591;52.532;13.348;2023-04-21T01:14:34;13.18;;;9.28;;
20861;SDS011;10591;52.532;13.348;2023-04-21T01:17:06;13.68;;;9.58;;
20861;SDS011;10591;52.532;13.348;2023-04-21T01:19:39;12.37;;;9.30;;
20861;SDS011;10591;52.532;13.348;2023-04-21T01:22:11;11.80;;;9.80;;
20861;SDS011;10591;52.532;13.348;2023-04-21T01:24:44;15.88;;;10.20;;
20861;SDS011;10591;52.532;13.348;2023-04-21T01:27:16;12.63;;;9.63;;
20861;SDS011;10591;52.532;13.348;2023-04-21T01:29:50;15.00;;;9.90;;
20861;SDS011;10591;52.532;13.348;2023-04-21T01:32:22;14.87;;;10.48;;
20861;SDS011;10591;52.532;13.348;2023-04-21T01:34:55;12.13;;;9.40;;
20861;SDS011;10591;52.532;13.348;2023-04-21T01:37:28;15.10;;;10.40;;
20861;SDS011;10591;52.532;13.348;2023-04-21T01:40:01;12.40;;;10.58;;
20861;SDS011;10591;52.532;13.348;2023-04-21T01:42:34;12.47;;;10.45;;
20861;SDS011;10591;52.532;13.348;2023-04-21T01:45:06;16.27;;;11.47;;
20861;SDS011;10591;52.532;13.348;2023-04-21T01:47:37;15.90;;;10.23;;
20861;SDS011;10591;52.532;13.348;2023-04-21T01:50:09;13.03;;;10.28;;
20861;SDS011;10591;52.532;13.348;2023-04-21T01:52:40;12.45;;;10.32;;
20861;SDS011;10591;52.532;13.348;2023-04-21T01:55:11;14.45;;;10.65;;
20861;SDS011;10591;52.532;13.348;2023-04-21T01:57:42;16.60;;;10.38;;
20861;SDS011;10591;52.532;13.348;2023-04-21T02:00:14;15.32;;;10.70;;
20861;SDS011;10591;52.532;13.348;2023-04-21T02:02:46;15.28;;;11.10;;
20861;SDS011;10591;52.532;13.348;2023-04-21T02:05:17;13.90;;;10.88;;
20861;SDS011;10591;52.532;13.348;2023-04-21T02:07:48;12.93;;;10.55;;
20861;SDS011;10591;52.532;13.348;2023-04-21T02:10:19;14.35;;;10.88;;
20861;SDS011;10591;52.532;13.348;2023-04-21T02:12:50;12.63;;;10.68;;
20861;SDS011;10591;52.532;13.348;2023-04-21T02:15:20;15.03;;;10.50;;
20861;SDS011;10591;52.532;13.348;2023-04-21T02:17:51;12.20;;;10.75;;
20861;SDS011;10591;52.532;13.348;2023-04-21T02:20:21;14.50;;;11.20;;
20861;SDS011;10591;52.532;13.348;2023-04-21T02:22:52;15.18;;;10.88;;
20861;SDS011;10591;52.532;13.348;2023-04-21T02:25:22;14.43;;;10.98;;
20861;SDS011;10591;52.532;13.348;2023-04-21T02:27:53;12.58;;;10.78;;
20861;SDS011;10591;52.532;13.348;2023-04-21T02:30:25;16.00;;;11.73;;
20861;SDS011;10591;52.532;13.348;2023-04-21T02:32:56;13.70;;;11.10;;
20861;SDS011;10591;52.532;13.348;2023-04-21T02:35:27;12.43;;;10.88;;
20861;SDS011;10591;52.532;13.348;2023-04-21T02:37:58;16.23;;;11.88;;
20861;SDS011;10591;52.532;13.348;2023-04-21T02:40:30;14.90;;;12.23;;
20861;SDS011;10591;52.532;13.348;2023-04-21T02:43:00;15.88;;;13.15;;
20861;SDS011;10591;52.532;13.348;2023-04-21T02:45:32;16.60;;;13.30;;
20861;SDS011;10591;52.532;13.348;2023-04-21T02:48:02;16.05;;;14.03;;
20861;SDS011;10591;52.532;13.348;2023-04-21T02:50:33;20.08;;;14.20;;
20861;SDS011;10591;52.532;13.348;2023-04-21T02:53:04;16.10;;;13.48;;
20861;SDS011;10591;52.532;13.348;2023-04-21T02:55:35;15.50;;;12.85;;
20861;SDS011;10591;52.532;13.348;2023-04-21T02:58:06;14.47;;;12.27;;
20861;SDS011;10591;52.532;13.348;2023-04-21T03:00:37;14.05;;;11.48;;
20861;SDS011;10591;52.532;13.348;2023-04-21T03:03:08;16.05;;;11.93;;
20861;SDS011;10591;52.532;13.348;2023-04-21T03:05:39;13.62;;;11.65;;
20861;SDS011;10591;52.532;13.348;2023-04-21T03:08:12;14.83;;;11.28;;
20861;SDS011;10591;52.532;13.348;2023-04-21T03:10:45;15.28;;;11.03;;
20861;SDS011;10591;52.532;13.348;2023-04-21T03:13:17;12.90;;;11.10;;
20861;SDS011;10591;52.532;13.348;2023-04-21T03:15:48;15.83;;;11.57;;
20861;SDS011;10591;52.532;13.348;2023-04-21T03:18:19;13.48;;;11.15;;
20861;SDS011;10591;52.532;13.348;2023-04-21T03:20:50;13.88;;;11.55;;
20861;SDS011;10591;52.532;13.348;2023-04-21T03:23:21;16.05;;;12.03;;
20861;SDS011;10591;52.532;13.348;2023-04-21T03:25:52;15.45;;;11.60;;
20861;SDS011;10591;52.532;13.348;2023-04-21T03:28:23;15.88;;;11.80;;
20861;SDS011;10591;52.532;13.348;2023-04-21T03:30:54;14.43;;;10.88;;
20861;SDS011;10591;52.532;13.348;2023-04-21T03:33:24;14.98;;;12.28;;
20861;SDS011;10591;52.532;13.348;2023-04-21T03:35:57;16.02;;;11.83;;
20861;SDS011;10591;52.532;13.348;2023-04-21T03:38:27;16.93;;;12.18;;
20861;SDS011;10591;52.532;13.348;2023-04-21T03:40:58;14.47;;;11.90;;
20861;SDS011;10591;52.532;13.348;2023-04-21T03:43:30;14.33;;;12.07;;
20861;SDS011;10591;52.532;13.348;2023-04-21T03:46:04;13.88;;;12.13;;
20861;SDS011;10591;52.532;13.348;2023-04-21T03:48:34;15.88;;;11.90;;
20861;SDS011;10591;52.532;13.348;2023-04-21T03:51:06;14.45;;;11.85;;
20861;SDS011;10591;52.532;13.348;2023-04-21T03:53:37;13.22;;;11.83;;
20861;SDS011;10591;52.532;13.348;2023-04-21T03:56:07;20.23;;;12.28;;
20861;SDS011;10591;52.532;13.348;2023-04-21T03:58:38;15.53;;;12.10;;
20861;SDS011;10591;52.532;13.348;2023-04-21T04:01:09;14.15;;;12.30;;
20861;SDS011;10591;52.532;13.348;2023-04-21T04:03:40;15.23;;;12.23;;
20861;SDS011;10591;52.532;13.348;2023-04-21T04:06:12;16.00;;;12.20;;
20861;SDS011;10591;52.532;13.348;2023-04-21T04:08:42;15.15;;;12.00;;
20861;SDS011;10591;52.532;13.348;2023-04-21T04:11:14;13.95;;;12.40;;
20861;SDS011;10591;52.532;13.348;2023-04-21T04:13:44;14.60;;;12.10;;
20861;SDS011;10591;52.532;13.348;2023-04-21T04:16:16;14.13;;;12.10;;
20861;SDS011;10591;52.532;13.348;2023-04-21T04:18:48;15.65;;;12.88;;
20861;SDS011;10591;52.532;13.348;2023-04-21T04:21:21;13.90;;;12.20;;
20861;SDS011;10591;52.532;13.348;2023-04-21T04:23:54;15.25;;;12.33;;
20861;SDS011;10591;52.532;13.348;2023-04-21T04:26:25;16.45;;;12.58;;
20861;SDS011;10591;52.532;13.348;2023-04-21T04:28:59;15.75;;;13.40;;
20861;SDS011;10591;52.532;13.348;2023-04-21T04:31:30;16.20;;;12.30;;
20861;SDS011;10591;52.532;13.348;2023-04-21T04:34:01;14.70;;;12.88;;
20861;SDS011;10591;52.532;13.348;2023-04-21T04:36:32;14.83;;;12.82;;
20861;SDS011;10591;52.532;13.348;2023-04-21T04:39:03;15.10;;;12.55;;
20861;SDS011;10591;52.532;13.348;2023-04-21T04:41:35;16.05;;;12.63;;
20861;SDS011;10591;52.532;13.348;2023-04-21T04:44:06;16.05;;;12.95;;
20861;SDS011;10591;52.532;13.348;2023-04-21T04:46:39;14.50;;;12.80;;
20861;SDS011;10591;52.532;13.348;2023-04-21T04:49:10;14.50;;;12.93;;
20861;SDS011;10591;52.532;13.348;2023-04-21T04:51:43;15.88;;;13.22;;
20861;SDS011;10591;52.532;13.348;2023-04-21T04:54:13;15.65;;;12.13;;
20861;SDS011;10591;52.532;13.348;2023-04-21T04:56:46;13.90;;;11.70;;
20861;SDS011;10591;52.532;13.348;2023-04-21T04:59:16;15.70;;;12.33;;
20861;SDS011;10591;52.532;13.348;2023-04-21T05:01:47;19.02;;;13.18;;
20861;SDS011;10591;52.532;13.348;2023-04-21T05:04:18;14.28;;;12.78;;
20861;SDS011;10591;52.532;13.348;2023-04-21T05:06:49;16.05;;;12.70;;
20861;SDS011;10591;52.532;13.348;2023-04-21T05:09:21;15.68;;;12.50;;
20861;SDS011;10591;52.532;13.348;2023-04-21T05:11:51;13.95;;;12.47;;
20861;SDS011;10591;52.532;13.348;2023-04-21T05:14:24;13.98;;;11.65;;
20861;SDS011;10591;52.532;13.348;2023-04-21T05:16:56;14.25;;;11.78;;
20861;SDS011;10591;52.532;13.348;2023-04-21T05:19:28;15.43;;;11.70;;
20861;SDS011;10591;52.532;13.348;2023-04-21T05:21:59;14.05;;;11.15;;
20861;SDS011;10591;52.532;13.348;2023-04-21T05:24:30;13.28;;;11.88;;
20861;SDS011;10591;52.532;13.348;2023-04-21T05:27:01;13.45;;;12.05;;
20861;SDS011;10591;52.532;13.348;2023-04-21T05:29:32;13.65;;;12.18;;
20861;SDS011;10591;52.532;13.348;2023-04-21T05:32:04;13.43;;;12.05;;
20861;SDS011;10591;52.532;13.348;2023-04-21T05:34:35;13.98;;;11.78;;
20861;SDS011;10591;52.532;13.348;2023-04-21T05:37:06;15.48;;;12.53;;
20861;SDS011;10591;52.532;13.348;2023-04-21T05:39:39;16.57;;;12.50;;
20861;SDS011;10591;52.532;13.348;2023-04-21T05:42:10;14.28;;;11.68;;
20861;SDS011;10591;52.532;13.348;2023-04-21T05:44:42;17.45;;;12.53;;
20861;SDS011;10591;52.532;13.348;2023-04-21T05:47:13;13.68;;;11.93;;
20861;SDS011;10591;52.532;13.348;2023-04-21T05:49:44;16.48;;;12.25;;
20861;SDS011;10591;52.532;13.348;2023-04-21T05:52:16;13.93;;;11.43;;
20861;SDS011;10591;52.532;13.348;2023-04-21T05:54:47;13.85;;;12.28;;
20861;SDS011;10591;52.532;13.348;2023-04-21T05:57:18;13.70;;;11.65;;
20861;SDS011;10591;52.532;13.348;2023-04-21T05:59:48;14.83;;;12.18;;
20861;SDS011;10591;52.532;13.348;2023-04-21T06:02:20;14.03;;;12.18;;
20861;SDS011;10591;52.532;13.348;2023-04-21T06:04:51;12.90;;;11.57;;
20861;SDS011;10591;52.532;13.348;2023-04-21T06:07:23;14.53;;;11.55;;
20861;SDS011;10591;52.532;13.348;2023-04-21T06:09:55;13.80;;;12.30;;
20861;SDS011;10591;52.532;13.348;2023-04-21T06:12:26;15.72;;;11.53;;
20861;SDS011;10591;52.532;13.348;2023-04-21T06:14:57;14.93;;;12.60;;
20861;SDS011;10591;52.532;13.348;2023-04-21T06:17:27;13.40;;;12.00;;
20861;SDS011;10591;52.532;13.348;2023-04-21T06:19:58;13.25;;;11.80;;
20861;SDS011;10591;52.532;13.348;2023-04-21T06:22:29;13.85;;;11.68;;
20861;SDS011;10591;52.532;13.348;2023-04-21T06:25:00;13.35;;;11.80;;
20861;SDS011;10591;52.532;13.348;2023-04-21T06:27:31;13.25;;;11.95;;
20861;SDS011;10591;52.532;13.348;2023-04-21T06:30:04;13.65;;;12.18;;
20861;SDS011;10591;52.532;13.348;2023-04-21T06:32:35;13.03;;;11.68;;
20861;SDS011;10591;52.532;13.348;2023-04-21T06:35:06;13.32;;;11.55;;
20861;SDS011;10591;52.532;13.348;2023-04-21T06:37:37;13.78;;;12.40;;
20861;SDS011;10591;52.532;13.348;2023-04-21T06:40:10;13.45;;;11.75;;
20861;SDS011;10591;52.532;13.348;2023-04-21T06:42:43;14.13;;;12.53;;
20861;SDS011;10591;52.532;13.348;2023-04-21T06:45:14;14.15;;;12.58;;
20861;SDS011;10591;52.532;13.348;2023-04-21T06:47:45;16.70;;;12.23;;
20861;SDS011;10591;52.532;13.348;2023-04-21T06:50:17;17.23;;;12.93;;
20861;SDS011;10591;52.532;13.348;2023-04-21T06:52:49;16.52;;;12.95;;
20861;SDS011;10591;52.532;13.348;2023-04-21T06:55:19;16.10;;;12.75;;
20861;SDS011;10591;52.532;13.348;2023-04-21T06:57:52;18.82;;;13.05;;
20861;SDS011;10591;52.532;13.348;2023-04-21T07:00:23;18.12;;;13.32;;
20861;SDS011;10591;52.532;13.348;2023-04-21T07:02:54;13.43;;;12.03;;
20861;SDS011;10591;52.532;13.348;2023-04-21T07:05:24;13.98;;;12.23;;
20861;SDS011;10591;52.532;13.348;2023-04-21T07:07:58;15.85;;;11.90;;
20861;SDS011;10591;52.532;13.348;2023-04-21T07:10:30;13.58;;;11.90;;
20861;SDS011;10591;52.532;13.348;2023-04-21T07:13:03;13.78;;;12.35;;
20861;SDS011;10591;52.532;13.348;2023-04-21T07:15:36;16.95;;;15.10;;
20861;SDS011;10591;52.532;13.348;2023-04-21T07:18:07;16.10;;;14.45;;
20861;SDS011;10591;52.532;13.348;2023-04-21T07:20:38;17.02;;;15.05;;
20861;SDS011;10591;52.532;13.348;2023-04-21T07:23:09;17.70;;;14.73;;
20861;SDS011;10591;52.532;13.348;2023-04-21T07:25:40;17.10;;;15.03;;
20861;SDS011;10591;52.532;13.348;2023-04-21T07:28:11;15.80;;;14.10;;
20861;SDS011;10591;52.532;13.348;2023-04-21T07:30:43;15.20;;;13.60;;
20861;SDS011;10591;52.532;13.348;2023-04-21T07:33:13;16.52;;;14.28;;
20861;SDS011;10591;52.532;13.348;2023-04-21T07:35:44;19.12;;;12.95;;
20861;SDS011;10591;52.532;13.348;2023-04-21T07:38:20;14.73;;;12.65;;
20861;SDS011;10591;52.532;13.348;2023-04-21T07:40:47;18.87;;;13.15;;
20861;SDS011;10591;52.532;13.348;2023-04-21T07:43:17;16.85;;;12.18;;
20861;SDS011;10591;52.532;13.348;2023-04-21T07:45:51;14.23;;;12.82;;
20861;SDS011;10591;52.532;13.348;2023-04-21T07:48:23;15.98;;;12.50;;
20861;SDS011;10591;52.532;13.348;2023-04-21T07:50:53;13.70;;;12.03;;
20861;SDS011;10591;52.532;13.348;2023-04-21T07:53:26;15.32;;;12.43;;
20861;SDS011;10591;52.532;13.348;2023-04-21T07:55:56;13.53;;;12.07;;
20861;SDS011;10591;52.532;13.348;2023-04-21T07:58:27;14.95;;;12.15;;
20861;SDS011;10591;52.532;13.348;2023-04-21T08:00:58;14.78;;;13.05;;
20861;SDS011;10591;52.532;13.348;2023-04-21T08:03:28;13.10;;;11.57;;
20861;SDS011;10591;52.532;13.348;2023-04-21T08:06:00;15.58;;;11.97;;
20861;SDS011;10591;52.532;13.348;2023-04-21T08:08:31;15.30;;;11.80;;
20861;SDS011;10591;52.532;13.348;2023-04-21T08:11:02;12.85;;;11.45;;
20861;SDS011;10591;52.532;13.348;2023-04-21T08:13:32;15.28;;;12.10;;
20861;SDS011;10591;52.532;13.348;2023-04-21T08:16:22;14.33;;;11.90;;
20861;SDS011;10591;52.532;13.348;2023-04-21T08:19:30;14.53;;;11.88;;
20861;SDS011;10591;52.532;13.348;2023-04-21T08:22:01;13.25;;;11.85;;
20861;SDS011;10591;52.532;13.348;2023-04-21T08:24:33;14.55;;;11.80;;
20861;SDS011;10591;52.532;13.348;2023-04-21T08:27:06;13.45;;;11.60;;
20861;SDS011;10591;52.532;13.348;2023-04-21T08:29:37;12.28;;;11.08;;
20861;SDS011;10591;52.532;13.348;2023-04-21T08:32:10;12.03;;;10.85;;
20861;SDS011;10591;52.532;13.348;2023-04-21T08:34:41;11.93;;;10.72;;
20861;SDS011;10591;52.532;13.348;2023-04-21T08:37:13;12.05;;;10.85;;
20861;SDS011;10591;52.532;13.348;2023-04-21T08:39:44;12.53;;;11.22;;
20861;SDS011;10591;52.532;13.348;2023-04-21T08:42:16;12.82;;;10.53;;
20861;SDS011;10591;52.532;13.348;2023-04-21T08:44:47;14.78;;;11.25;;
20861;SDS011;10591;52.532;13.348;2023-04-21T08:47:21;14.93;;;11.88;;
20861;SDS011;10591;52.532;13.348;2023-04-21T08:49:54;14.10;;;11.28;;
20861;SDS011;10591;52.532;13.348;2023-04-21T08:52:29;14.68;;;10.80;;
20861;SDS011;10591;52.532;13.348;2023-04-21T08:55:00;13.28;;;11.25;;
20861;SDS011;10591;52.532;13.348;2023-04-21T08:57:31;13.85;;;10.80;;
20861;SDS011;10591;52.532;13.348;2023-04-21T09:00:02;11.10;;;10.00;;
20861;SDS011;10591;52.532;13.348;2023-04-21T09:02:51;11.70;;;10.15;;
20861;SDS011;10591;52.532;13.348;2023-04-21T09:05:22;14.68;;;10.10;;
20861;SDS011;10591;52.532;13.348;2023-04-21T09:08:10;11.60;;;10.43;;
20861;SDS011;10591;52.532;13.348;2023-04-21T09:10:43;10.82;;;9.80;;
20861;SDS011;10591;52.532;13.348;2023-04-21T09:13:15;11.73;;;10.60;;
20861;SDS011;10591;52.532;13.348;2023-04-21T09:15:48;13.32;;;10.95;;
20861;SDS011;10591;52.532;13.348;2023-04-21T09:18:23;11.63;;;10.43;;
20861;SDS011;10591;52.532;13.348;2023-04-21T09:21:16;12.07;;;10.75;;
20861;SDS011;10591;52.532;13.348;2023-04-21T09:23:46;14.10;;;10.50;;
20861;SDS011;10591;52.532;13.348;2023-04-21T09:26:19;11.53;;;10.40;;
20861;SDS011;10591;52.532;13.348;2023-04-21T09:28:53;14.07;;;11.73;;
20861;SDS011;10591;52.532;13.348;2023-04-21T09:31:24;12.35;;;10.63;;
20861;SDS011;10591;52.532;13.348;2023-04-21T09:33:57;14.70;;;10.60;;
20861;SDS011;10591;52.532;13.348;2023-04-21T09:36:29;13.50;;;10.50;;
20861;SDS011;10591;52.532;13.348;2023-04-21T09:39:00;11.08;;;9.98;;
20861;SDS011;10591;52.532;13.348;2023-04-21T09:41:34;12.65;;;9.85;;
20861;SDS011;10591;52.532;13.348;2023-04-21T09:44:05;12.18;;;10.08;;
20861;SDS011;10591;52.532;13.348;2023-04-21T09:46:35;11.40;;;9.58;;
20861;SDS011;10591;52.532;13.348;2023-04-21T09:49:06;10.63;;;9.60;;
20861;SDS011;10591;52.532;13.348;2023-04-21T09:51:41;10.60;;;9.55;;
20861;SDS011;10591;52.532;13.348;2023-04-21T09:54:19;11.63;;;9.60;;
20861;SDS011;10591;52.532;13.348;2023-04-21T09:57:02;10.90;;;9.73;;
20861;SDS011;10591;52.532;13.348;2023-04-21T09:59:35;11.20;;;9.98;;
20861;SDS011;10591;52.532;13.348;2023-04-21T10:02:07;10.43;;;9.13;;
20861;SDS011;10591;52.532;13.348;2023-04-21T10:04:39;11.68;;;9.55;;
20861;SDS011;10591;52.532;13.348;2023-04-21T10:07:11;11.60;;;9.23;;
20861;SDS011;10591;52.532;13.348;2023-04-21T10:09:44;11.22;;;9.53;;
20861;SDS011;10591;52.532;13.348;2023-04-21T10:12:16;11.08;;;8.55;;
20861;SDS011;10591;52.532;13.348;2023-04-21T10:14:51;12.05;;;9.50;;
20861;SDS011;10591;52.532;13.348;2023-04-21T10:17:24;10.75;;;8.70;;
20861;SDS011;10591;52.532;13.348;2023-04-21T10:20:03;10.53;;;9.45;;
20861;SDS011;10591;52.532;13.348;2023-04-21T10:22:33;10.08;;;8.90;;
20861;SDS011;10591;52.532;13.348;2023-04-21T10:25:07;10.28;;;9.13;;
20861;SDS011;10591;52.532;13.348;2023-04-21T10:27:41;13.30;;;8.98;;
20861;SDS011;10591;52.532;13.348;2023-04-21T10:33:04;9.90;;;8.40;;
20861;SDS011;10591;52.532;13.348;2023-04-21T10:38:41;8.93;;;7.97;;
20861;SDS011;10591;52.532;13.348;2023-04-21T10:41:28;9.55;;;8.50;;
20861;SDS011;10591;52.532;13.348;2023-04-21T10:46:48;12.23;;;9.13;;
20861;SDS011;10591;52.532;13.348;2023-04-21T10:49:28;11.25;;;8.60;;
20861;SDS011;10591;52.532;13.348;2023-04-21T10:57:26;11.20;;;8.03;;
20861;SDS011;10591;52.532;13.348;2023-04-21T11:00:00;10.00;;;8.23;;
20861;SDS011;10591;52.532;13.348;2023-04-21T11:02:33;10.32;;;7.92;;
20861;SDS011;10591;52.532;13.348;2023-04-21T11:05:06;9.18;;;7.97;;
20861;SDS011;10591;52.532;13.348;2023-04-21T11:07:40;14.05;;;8.60;;
20861;SDS011;10591;52.532;13.348;2023-04-21T11:10:13;10.43;;;7.95;;
20861;SDS011;10591;52.532;13.348;2023-04-21T11:12:43;9.28;;;8.48;;
20861;SDS011;10591;52.532;13.348;2023-04-21T11:15:14;9.95;;;7.97;;
20861;SDS011;10591;52.532;13.348;2023-04-21T11:17:45;9.40;;;8.38;;
20861;SDS011;10591;52.532;13.348;2023-04-21T11:20:16;9.28;;;8.38;;
20861;SDS011;10591;52.532;13.348;2023-04-21T11:22:48;12.23;;;8.55;;
20861;SDS011;10591;52.532;13.348;2023-04-21T11:25:21;8.83;;;7.97;;
20861;SDS011;10591;52.532;13.348;2023-04-21T11:27:57;8.58;;;7.70;;
20861;SDS011;10591;52.532;13.348;2023-04-21T11:30:32;8.78;;;7.87;;
20861;SDS011;10591;52.532;13.348;2023-04-21T11:33:03;9.60;;;7.87;;
20861;SDS011;10591;52.532;13.348;2023-04-21T11:35:38;8.95;;;8.15;;
20861;SDS011;10591;52.532;13.348;2023-04-21T11:38:08;9.40;;;8.25;;
20861;SDS011;10591;52.532;13.348;2023-04-21T11:40:45;9.03;;;7.78;;
20861;SDS011;10591;52.532;13.348;2023-04-21T11:43:19;9.05;;;8.20;;
20861;SDS011;10591;52.532;13.348;2023-04-21T11:45:50;9.25;;;8.08;;
20861;SDS011;10591;52.532;13.348;2023-04-21T11:48:21;9.78;;;8.30;;
20861;SDS011;10591;52.532;13.348;2023-04-21T11:50:52;9.00;;;8.10;;
20861;SDS011;10591;52.532;13.348;2023-04-21T11:53:23;10.35;;;8.20;;
20861;SDS011;10591;52.532;13.348;2023-04-21T11:55:55;9.63;;;8.43;;
20861;SDS011;10591;52.532;13.348;2023-04-21T11:58:27;11.00;;;8.58;;
20861;SDS011;10591;52.532;13.348;2023-04-21T12:00:58;10.93;;;7.90;;
20861;SDS011;10591;52.532;13.348;2023-04-21T12:03:31;8.90;;;7.92;;
20861;SDS011;10591;52.532;13.348;2023-04-21T12:06:03;8.73;;;7.83;;
20861;SDS011;10591;52.532;13.348;2023-04-21T12:08:35;8.83;;;7.62;;
20861;SDS011;10591;52.532;13.348;2023-04-21T12:11:10;10.40;;;7.62;;
20861;SDS011;10591;52.532;13.348;2023-04-21T12:13:43;8.78;;;7.97;;
20861;SDS011;10591;52.532;13.348;2023-04-21T12:16:14;8.78;;;7.60;;
20861;SDS011;10591;52.532;13.348;2023-04-21T12:18:46;13.30;;;8.08;;
20861;SDS011;10591;52.532;13.348;2023-04-21T12:21:17;8.00;;;7.30;;
20861;SDS011;10591;52.532;13.348;2023-04-21T12:23:48;12.00;;;8.00;;
20861;SDS011;10591;52.532;13.348;2023-04-21T12:26:19;9.05;;;8.13;;
20861;SDS011;10591;52.532;13.348;2023-04-21T12:28:52;8.98;;;7.87;;
20861;SDS011;10591;52.532;13.348;2023-04-21T12:31:23;8.80;;;7.92;;
20861;SDS011;10591;52.532;13.348;2023-04-21T12:33:54;10.60;;;8.50;;
20861;SDS011;10591;52.532;13.348;2023-04-21T12:36:27;8.73;;;7.83;;
20861;SDS011;10591;52.532;13.348;2023-04-21T12:38:58;10.20;;;7.95;;
20861;SDS011;10591;52.532;13.348;2023-04-21T12:41:29;8.00;;;7.05;;
20861;SDS011;10591;52.532;13.348;2023-04-21T12:43:59;9.00;;;8.08;;
20861;SDS011;10591;52.532;13.348;2023-04-21T12:46:36;10.48;;;7.47;;
20861;SDS011;10591;52.532;13.348;2023-04-21T12:49:08;8.65;;;7.87;;
20861;SDS011;10591;52.532;13.348;2023-04-21T12:51:39;10.15;;;7.83;;
20861;SDS011;10591;52.532;13.348;2023-04-21T12:54:10;10.13;;;7.95;;
20861;SDS011;10591;52.532;13.348;2023-04-21T12:56:41;7.97;;;7.20;;
20861;SDS011;10591;52.532;13.348;2023-04-21T12:59:12;8.70;;;7.70;;
20861;SDS011;10591;52.532;13.348;2023-04-21T13:01:43;10.23;;;7.15;;
20861;SDS011;10591;52.532;13.348;2023-04-21T13:04:16;10.32;;;7.35;;
20861;SDS011;10591;52.532;13.348;2023-04-21T13:06:47;8.08;;;7.17;;
20861;SDS011;10591;52.532;13.348;2023-04-21T13:09:18;7.67;;;6.83;;
20861;SDS011;10591;52.532;13.348;2023-04-21T13:11:48;7.90;;;7.17;;
20861;SDS011;10591;52.532;13.348;2023-04-21T13:14:19;8.90;;;7.83;;
20861;SDS011;10591;52.532;13.348;2023-04-21T13:16:50;8.50;;;7.70;;
20861;SDS011;10591;52.532;13.348;2023-04-21T13:19:21;8.33;;;7.53;;
20861;SDS011;10591;52.532;13.348;2023-04-21T13:21:53;9.78;;;7.40;;
20861;SDS011;10591;52.532;13.348;2023-04-21T13:24:24;8.28;;;7.30;;
20861;SDS011;10591;52.532;13.348;2023-04-21T13:26:57;7.55;;;6.78;;
20861;SDS011;10591;52.532;13.348;2023-04-21T13:29:30;7.50;;;6.80;;
20861;SDS011;10591;52.532;13.348;2023-04-21T13:32:03;8.38;;;7.42;;
20861;SDS011;10591;52.532;13.348;2023-04-21T13:34:35;7.65;;;6.87;;
20861;SDS011;10591;52.532;13.348;2023-04-21T13:37:06;7.87;;;7.08;;
20861;SDS011;10591;52.532;13.348;2023-04-21T13:39:38;7.53;;;6.72;;
20861;SDS011;10591;52.532;13.348;2023-04-21T13:42:09;7.67;;;6.97;;
20861;SDS011;10591;52.532;13.348;2023-04-21T13:44:42;7.90;;;7.17;;
20861;SDS011;10591;52.532;13.348;2023-04-21T13:47:14;8.43;;;7.40;;
20861;SDS011;10591;52.532;13.348;2023-04-21T13:49:46;8.03;;;7.33;;
20861;SDS011;10591;52.532;13.348;2023-04-21T13:52:21;8.35;;;7.45;;
20861;SDS011;10591;52.532;13.348;2023-04-21T13:54:55;8.03;;;7.33;;
20861;SDS011;10591;52.532;13.348;2023-04-21T13:57:26;7.78;;;6.87;;
20861;SDS011;10591;52.532;13.348;2023-04-21T13:59:57;9.28;;;7.50;;
20861;SDS011;10591;52.532;13.348;2023-04-21T14:02:30;7.92;;;7.12;;
20861;SDS011;10591;52.532;13.348;2023-04-21T14:05:01;8.73;;;7.92;;
20861;SDS011;10591;52.532;13.348;2023-04-21T14:07:32;9.08;;;7.42;;
20861;SDS011;10591;52.532;13.348;2023-04-21T14:10:05;8.28;;;7.40;;
20861;SDS011;10591;52.532;13.348;2023-04-21T14:12:41;7.78;;;7.08;;
20861;SDS011;10591;52.532;13.348;2023-04-21T14:15:14;10.20;;;7.37;;
20861;SDS011;10591;52.532;13.348;2023-04-21T14:17:44;8.00;;;7.30;;
20861;SDS011;10591;52.532;13.348;2023-04-21T14:20:16;9.55;;;7.37;;
20861;SDS011;10591;52.532;13.348;2023-04-21T14:22:46;8.28;;;7.30;;
20861;SDS011;10591;52.532;13.348;2023-04-21T14:25:18;8.10;;;7.37;;
20861;SDS011;10591;52.532;13.348;2023-04-21T14:27:49;9.40;;;7.85;;
20861;SDS011;10591;52.532;13.348;2023-04-21T14:30:19;8.58;;;7.08;;
20861;SDS011;10591;52.532;13.348;2023-04-21T14:33:00;7.70;;;6.70;;
20861;SDS011;10591;52.532;13.348;2023-04-21T14:35:46;8.30;;;7.50;;
20861;SDS011;10591;52.532;13.348;2023-04-21T14:38:17;8.23;;;7.42;;
20861;SDS011;10591;52.532;13.348;2023-04-21T14:40:49;8.58;;;7.33;;
20861;SDS011;10591;52.532;13.348;2023-04-21T14:43:21;8.20;;;6.83;;
20861;SDS011;10591;52.532;13.348;2023-04-21T14:45:52;7.53;;;6.85;;
20861;SDS011;10591;52.532;13.348;2023-04-21T14:48:23;7.97;;;7.05;;
20861;SDS011;10591;52.532;13.348;2023-04-21T14:50:57;8.43;;;6.83;;
20861;SDS011;10591;52.532;13.348;2023-04-21T14:53:31;10.03;;;8.05;;
20861;SDS011;10591;52.532;13.348;2023-04-21T14:56:05;7.40;;;6.70;;
20861;SDS011;10591;52.532;13.348;2023-04-21T14:58:37;7.97;;;7.12;;
20861;SDS011;10591;52.532;13.348;2023-04-21T15:01:08;7.58;;;6.92;;